createdAt,value
2017-06-11T00:00:53.514Z,24.67
2017-06-11T00:02:03.744Z,24.67
2017-06-11T00:03:13.349Z,24.68
2017-06-11T00:04:23.570Z,24.57
2017-06-11T00:05:33.185Z,24.55
2017-06-11T00:06:42.792Z,24.57
2017-06-11T00:07:52.701Z,24.55
2017-06-11T00:09:02.349Z,24.53
2017-06-11T00:10:11.949Z,24.58
2017-06-11T00:11:21.567Z,24.58
2017-06-11T00:12:30.554Z,24.61
2017-06-11T00:13:40.791Z,24.53
2017-06-11T00:14:50.393Z,24.55
2017-06-11T00:16:00.641Z,24.53
2017-06-11T00:17:10.864Z,24.52
2017-06-11T00:18:21.086Z,24.55
2017-06-11T00:19:30.998Z,24.46
2017-06-11T00:20:39.987Z,24.49
2017-06-11T00:21:49.899Z,24.53
2017-06-11T00:22:59.804Z,24.5
2017-06-11T00:24:09.784Z,24.5
2017-06-11T00:25:19.722Z,24.47
2017-06-11T00:26:29.338Z,24.46
2017-06-11T00:27:38.941Z,24.37
2017-06-11T00:28:48.858Z,24.4
2017-06-11T00:29:59.083Z,24.46
2017-06-11T00:31:09.010Z,24.31
2017-06-11T00:32:18.622Z,24.45
2017-06-11T00:33:28.264Z,24.37
2017-06-11T00:34:38.515Z,24.39
2017-06-11T00:35:48.757Z,24.32
2017-06-11T00:36:58.674Z,24.45
2017-06-11T00:38:08.602Z,24.31
2017-06-11T00:39:18.213Z,24.34
2017-06-11T00:40:27.836Z,24.43
2017-06-11T00:41:37.787Z,24.39
2017-06-11T00:42:47.768Z,24.3
2017-06-11T00:43:57.983Z,24.34
2017-06-11T00:45:07.588Z,24.43
2017-06-11T00:46:17.509Z,24.25
2017-06-11T00:47:27.436Z,24.32
2017-06-11T00:48:38.032Z,24.46
2017-06-11T00:49:47.975Z,24.43
2017-06-11T00:50:57.624Z,24.43
2017-06-11T00:52:07.549Z,24.32
2017-06-11T00:53:17.494Z,24.34
2017-06-11T00:54:27.429Z,24.37
2017-06-11T00:55:37.344Z,24.3
2017-06-11T00:56:47.574Z,24.3
2017-06-11T00:57:57.182Z,24.27
2017-06-11T00:59:07.085Z,24.28
2017-06-11T01:00:17.305Z,24.3
2017-06-11T01:01:27.236Z,24.22
2017-06-11T01:02:36.843Z,24.39
2017-06-11T01:03:46.766Z,24.34
2017-06-11T01:04:56.063Z,24.37
2017-06-11T01:06:05.975Z,24.3
2017-06-11T01:07:15.892Z,24.43
2017-06-11T01:08:26.124Z,24.32
2017-06-11T01:09:36.028Z,24.31
2017-06-11T01:10:45.943Z,24.25
2017-06-11T01:11:55.559Z,24.34
2017-06-11T01:13:05.194Z,24.32
2017-06-11T01:14:15.436Z,24.32
2017-06-11T01:15:25.670Z,24.28
2017-06-11T01:16:35.286Z,24.22
2017-06-11T01:17:44.890Z,24.28
2017-06-11T01:18:54.523Z,24.28
2017-06-11T01:20:04.443Z,24.31
2017-06-11T01:21:14.382Z,24.2
2017-06-11T01:22:24.610Z,24.24
2017-06-11T01:23:34.244Z,24.31
2017-06-11T01:24:43.868Z,24.21
2017-06-11T01:25:53.474Z,24.16
2017-06-11T01:27:03.688Z,24.21
2017-06-11T01:28:13.301Z,24.21
2017-06-11T01:29:23.510Z,24.02
2017-06-11T01:30:33.473Z,24.1
2017-06-11T01:31:43.701Z,24.13
2017-06-11T01:32:53.627Z,24.13
2017-06-11T01:34:03.530Z,24.08
2017-06-11T01:35:13.753Z,24.08
2017-06-11T01:36:23.367Z,24
2017-06-11T01:37:33.629Z,24.02
2017-06-11T01:38:43.845Z,24.06
2017-06-11T01:39:54.127Z,24.02
2017-06-11T01:41:04.066Z,23.93
2017-06-11T01:42:13.971Z,24.08
2017-06-11T01:43:24.207Z,23.97
2017-06-11T01:44:34.117Z,24.05
2017-06-11T01:45:43.763Z,23.93
2017-06-11T01:46:53.689Z,23.97
2017-06-11T01:48:03.590Z,23.98
2017-06-11T01:49:13.231Z,23.94
2017-06-11T01:50:22.836Z,24
2017-06-11T01:51:32.441Z,23.88
2017-06-11T01:52:42.365Z,23.95
2017-06-11T01:53:52.274Z,23.94
2017-06-11T01:55:02.197Z,23.85
2017-06-11T01:56:11.818Z,23.9
2017-06-11T01:57:21.726Z,23.85
2017-06-11T01:58:31.981Z,23.91
2017-06-11T01:59:41.920Z,23.88
2017-06-11T02:00:51.880Z,23.87
2017-06-11T02:02:01.841Z,23.93
2017-06-11T02:03:11.765Z,23.91
2017-06-11T02:04:22.077Z,23.84
2017-06-11T02:05:31.728Z,23.88
2017-06-11T02:06:41.327Z,23.8
2017-06-11T02:07:51.548Z,23.88
2017-06-11T02:09:01.467Z,23.9
2017-06-11T02:10:11.713Z,23.84
2017-06-11T02:11:21.959Z,23.87
2017-06-11T02:12:32.199Z,23.8
2017-06-11T02:13:41.510Z,23.78
2017-06-11T02:14:51.442Z,23.8
2017-06-11T02:16:01.355Z,23.76
2017-06-11T02:17:11.582Z,23.75
2017-06-11T02:18:20.884Z,23.73
2017-06-11T02:19:31.105Z,23.87
2017-06-11T02:20:40.709Z,23.79
2017-06-11T02:21:50.941Z,23.78
2017-06-11T02:23:00.237Z,23.7
2017-06-11T02:24:09.849Z,23.76
2017-06-11T02:25:19.481Z,23.79
2017-06-11T02:26:29.107Z,23.73
2017-06-11T02:27:38.737Z,23.78
2017-06-11T02:28:48.647Z,23.72
2017-06-11T02:29:58.549Z,23.76
2017-06-11T02:31:08.760Z,23.76
2017-06-11T02:32:18.389Z,23.7
2017-06-11T02:33:27.998Z,23.7
2017-06-11T02:34:37.909Z,23.79
2017-06-11T02:35:47.850Z,23.75
2017-06-11T02:36:58.063Z,23.75
2017-06-11T02:38:08.301Z,23.87
2017-06-11T02:39:18.510Z,23.63
2017-06-11T02:40:28.736Z,23.79
2017-06-11T02:41:38.347Z,23.69
2017-06-11T02:42:48.258Z,23.79
2017-06-11T02:43:57.859Z,23.73
2017-06-11T02:45:07.469Z,23.66
2017-06-11T02:46:17.389Z,23.65
2017-06-11T02:47:27.003Z,23.72
2017-06-11T02:48:37.223Z,23.76
2017-06-11T02:49:46.825Z,23.76
2017-06-11T02:50:56.752Z,23.72
2017-06-11T02:52:06.050Z,23.63
2017-06-11T02:53:15.998Z,23.61
2017-06-11T02:54:25.942Z,23.68
2017-06-11T02:55:35.562Z,23.66
2017-06-11T02:56:45.784Z,23.76
2017-06-11T02:57:56.010Z,23.68
2017-06-11T02:59:06.232Z,23.66
2017-06-11T03:00:16.139Z,23.66
2017-06-11T03:01:26.047Z,23.66
2017-06-11T03:02:36.277Z,23.63
2017-06-11T03:03:46.195Z,23.65
2017-06-11T03:04:56.438Z,23.65
2017-06-11T03:06:06.037Z,23.63
2017-06-11T03:07:16.249Z,23.63
2017-06-11T03:08:25.871Z,23.63
2017-06-11T03:09:36.092Z,23.69
2017-06-11T03:10:45.994Z,23.58
2017-06-11T03:11:56.219Z,23.63
2017-06-11T03:13:05.825Z,23.57
2017-06-11T03:14:16.068Z,23.58
2017-06-11T03:15:25.983Z,23.61
2017-06-11T03:16:35.590Z,23.61
2017-06-11T03:17:45.810Z,23.61
2017-06-11T03:18:55.713Z,23.63
2017-06-11T03:20:05.026Z,23.58
2017-06-11T03:21:15.265Z,23.66
2017-06-11T03:22:24.869Z,23.63
2017-06-11T03:23:35.097Z,23.6
2017-06-11T03:24:44.409Z,23.63
2017-06-11T03:25:53.700Z,23.57
2017-06-11T03:27:03.608Z,23.58
2017-06-11T03:28:13.820Z,23.63
2017-06-11T03:29:24.052Z,23.54
2017-06-11T03:30:33.659Z,23.6
2017-06-11T03:31:43.265Z,23.6
2017-06-11T03:32:53.201Z,23.57
2017-06-11T03:34:03.423Z,23.54
2017-06-11T03:35:13.651Z,23.54
2017-06-11T03:36:23.562Z,23.6
2017-06-11T03:37:32.555Z,23.54
2017-06-11T03:38:42.772Z,23.61
2017-06-11T03:39:52.681Z,23.58
2017-06-11T03:41:02.609Z,23.61
2017-06-11T03:42:12.211Z,23.53
2017-06-11T03:43:22.436Z,23.55
2017-06-11T03:44:32.375Z,23.58
2017-06-11T03:45:42.312Z,23.63
2017-06-11T03:46:52.521Z,23.65
2017-06-11T03:48:02.464Z,23.61
2017-06-11T03:49:12.062Z,23.55
2017-06-11T03:50:21.679Z,23.58
2017-06-11T03:51:31.898Z,23.57
2017-06-11T03:52:41.199Z,23.6
2017-06-11T03:53:51.096Z,23.65
2017-06-11T03:55:01.001Z,23.6
2017-06-11T03:56:10.611Z,23.6
2017-06-11T03:57:20.507Z,23.53
2017-06-11T03:58:30.737Z,23.61
2017-06-11T03:59:40.346Z,23.61
2017-06-11T04:00:50.263Z,23.61
2017-06-11T04:02:00.169Z,23.61
2017-06-11T04:03:10.392Z,23.61
2017-06-11T04:04:20.611Z,23.66
2017-06-11T04:05:30.523Z,23.6
2017-06-11T04:06:39.824Z,23.58
2017-06-11T04:07:49.758Z,23.61
2017-06-11T04:08:59.975Z,23.61
2017-06-11T04:10:09.587Z,23.63
2017-06-11T04:11:19.807Z,23.6
2017-06-11T04:12:30.035Z,23.63
2017-06-11T04:13:40.269Z,23.69
2017-06-11T04:14:50.496Z,23.61
2017-06-11T04:15:59.798Z,23.73
2017-06-11T04:17:09.416Z,23.73
2017-06-11T04:18:19.011Z,23.7
2017-06-11T04:19:29.225Z,23.69
2017-06-11T04:20:39.155Z,23.76
2017-06-11T04:21:49.373Z,23.8
2017-06-11T04:22:59.287Z,23.78
2017-06-11T04:24:09.189Z,23.72
2017-06-11T04:25:18.799Z,23.73
2017-06-11T04:26:28.714Z,23.73
2017-06-11T04:27:38.322Z,23.79
2017-06-11T04:28:48.528Z,23.78
2017-06-11T04:29:58.434Z,23.78
2017-06-11T04:31:08.662Z,23.79
2017-06-11T04:32:18.904Z,23.69
2017-06-11T04:33:28.811Z,23.69
2017-06-11T04:34:38.418Z,23.75
2017-06-11T04:35:48.332Z,23.69
2017-06-11T04:36:58.263Z,23.78
2017-06-11T04:38:08.473Z,23.83
2017-06-11T04:39:18.383Z,23.83
2017-06-11T04:40:27.987Z,23.78
2017-06-11T04:41:38.210Z,23.84
2017-06-11T04:42:48.177Z,23.84
2017-06-11T04:43:58.076Z,23.8
2017-06-11T04:45:07.686Z,23.8
2017-06-11T04:46:17.589Z,23.83
2017-06-11T04:47:27.183Z,23.84
2017-06-11T04:48:37.413Z,23.78
2017-06-11T04:49:47.327Z,23.88
2017-06-11T04:50:57.550Z,23.8
2017-06-11T04:52:07.470Z,23.84
2017-06-11T04:53:17.387Z,23.83
2017-06-11T04:54:27.614Z,23.84
2017-06-11T04:55:37.207Z,23.87
2017-06-11T04:56:46.810Z,23.9
2017-06-11T04:57:56.751Z,23.87
2017-06-11T04:59:07.111Z,23.87
2017-06-11T05:00:16.540Z,23.9
2017-06-11T05:01:26.853Z,23.94
2017-06-11T05:02:36.480Z,23.91
2017-06-11T05:03:46.395Z,23.88
2017-06-11T05:04:55.878Z,23.97
2017-06-11T05:06:06.298Z,23.93
2017-06-11T05:07:16.536Z,23.93
2017-06-11T05:08:27.192Z,23.93
2017-06-11T05:09:37.542Z,23.88
2017-06-11T05:10:47.867Z,23.93
2017-06-11T05:11:57.490Z,23.91
2017-06-11T05:13:07.738Z,24
2017-06-11T05:14:18.055Z,24.02
2017-06-11T05:15:28.351Z,23.91
2017-06-11T05:16:38.290Z,23.98
2017-06-11T05:17:48.270Z,24.02
2017-06-11T05:18:57.905Z,24.02
2017-06-11T05:20:07.207Z,24.02
2017-06-11T05:21:17.428Z,24.08
2017-06-11T05:22:27.352Z,24.12
2017-06-11T05:23:37.578Z,24.13
2017-06-11T05:24:47.484Z,24.16
2017-06-11T05:25:57.412Z,24.16
2017-06-11T05:27:07.323Z,24.09
2017-06-11T05:28:17.785Z,24.1
2017-06-11T05:29:27.703Z,24.2
2017-06-11T05:30:37.647Z,24.25
2017-06-11T05:31:47.863Z,24.25
2017-06-11T05:32:57.871Z,24.24
2017-06-11T05:34:07.790Z,24.25
2017-06-11T05:35:18.186Z,24.31
2017-06-11T05:36:27.504Z,24.37
2017-06-11T05:37:36.920Z,24.32
2017-06-11T05:38:47.698Z,24.45
2017-06-11T05:39:57.944Z,24.45
2017-06-11T05:41:08.646Z,24.42
2017-06-11T05:42:19.468Z,24.47
2017-06-11T05:43:29.807Z,24.5
2017-06-11T05:44:39.432Z,24.71
2017-06-11T05:45:49.648Z,24.81
2017-06-11T05:46:59.570Z,24.96
2017-06-11T05:48:09.493Z,25.2
2017-06-11T05:49:19.106Z,25.3
2017-06-11T05:50:29.318Z,25.58
2017-06-11T05:51:39.234Z,25.61
2017-06-11T05:52:49.144Z,25.92
2017-06-11T05:53:59.056Z,26.01
2017-06-11T05:55:08.975Z,26.1
2017-06-11T05:56:18.890Z,26.28
2017-06-11T05:57:28.829Z,26.51
2017-06-11T05:58:39.032Z,26.73
2017-06-11T05:59:48.939Z,26.92
2017-06-11T06:00:58.552Z,27.06
2017-06-11T06:02:08.159Z,27.21
2017-06-11T06:03:18.375Z,27.44
2017-06-11T06:04:28.313Z,27.67
2017-06-11T06:05:38.538Z,27.94
2017-06-11T06:06:47.841Z,28.07
2017-06-11T06:07:57.449Z,28.4
2017-06-11T06:09:07.683Z,28.49
2017-06-11T06:10:17.297Z,28.74
2017-06-11T06:11:27.204Z,28.88
2017-06-11T06:12:37.146Z,29.11
2017-06-11T06:13:47.404Z,29.39
2017-06-11T06:14:57.033Z,29.43
2017-06-11T06:16:06.361Z,29.67
2017-06-11T06:17:16.578Z,29.83
2017-06-11T06:18:26.791Z,29.98
2017-06-11T06:19:36.687Z,30.15
2017-06-11T06:20:46.598Z,30.23
2017-06-11T06:21:56.513Z,30.38
2017-06-11T06:23:06.429Z,30.39
2017-06-11T06:24:16.345Z,30.54
2017-06-11T06:25:26.568Z,30.69
2017-06-11T06:26:36.193Z,30.92
2017-06-11T06:27:46.114Z,31.01
2017-06-11T06:28:56.347Z,31.12
2017-06-11T06:30:06.567Z,31.26
2017-06-11T06:31:16.485Z,31.38
2017-06-11T06:32:26.098Z,31.57
2017-06-11T06:33:36.329Z,31.76
2017-06-11T06:34:46.253Z,31.88
2017-06-11T06:35:56.461Z,32.1
2017-06-11T06:37:06.081Z,32.25
2017-06-11T06:38:16.292Z,32.41
2017-06-11T06:39:25.911Z,32.48
2017-06-11T06:40:35.519Z,32.63
2017-06-11T06:41:44.828Z,32.77
2017-06-11T06:42:54.435Z,32.7
2017-06-11T06:44:04.356Z,32.78
2017-06-11T06:45:14.580Z,32.85
2017-06-11T06:46:24.505Z,32.87
2017-06-11T06:47:34.431Z,32.74
2017-06-11T06:48:44.355Z,32.72
2017-06-11T06:49:54.587Z,32.59
2017-06-11T06:51:04.814Z,32.47
2017-06-11T06:52:15.047Z,32.4
2017-06-11T06:53:24.978Z,32.22
2017-06-11T06:54:35.219Z,32.18
2017-06-11T06:55:45.141Z,32.18
2017-06-11T06:56:54.760Z,32.1
2017-06-11T06:58:04.999Z,32.13
2017-06-11T06:59:14.935Z,32.23
2017-06-11T07:00:25.176Z,32.37
2017-06-11T07:01:35.102Z,32.63
2017-06-11T07:02:44.742Z,32.88
2017-06-11T07:03:54.353Z,32.93
2017-06-11T07:05:03.975Z,33.14
2017-06-11T07:06:13.576Z,33.29
2017-06-11T07:07:23.799Z,33.39
2017-06-11T07:08:33.727Z,33.42
2017-06-11T07:09:43.643Z,33.41
2017-06-11T07:10:52.945Z,33.51
2017-06-11T07:12:03.222Z,33.5
2017-06-11T07:13:13.157Z,33.47
2017-06-11T07:14:23.393Z,33.47
2017-06-11T07:15:33.017Z,33.61
2017-06-11T07:16:42.621Z,33.42
2017-06-11T07:17:52.540Z,33.45
2017-06-11T07:19:02.150Z,33.26
2017-06-11T07:20:12.068Z,33.14
2017-06-11T07:21:22.351Z,32.99
2017-06-11T07:22:31.975Z,32.78
2017-06-11T07:23:41.891Z,32.69
2017-06-11T07:24:52.124Z,32.48
2017-06-11T07:26:02.065Z,32.32
2017-06-11T07:27:11.989Z,32.13
2017-06-11T07:28:21.910Z,32.01
2017-06-11T07:29:31.838Z,31.85
2017-06-11T07:30:41.134Z,31.72
2017-06-11T07:31:51.040Z,31.73
2017-06-11T07:33:01.300Z,31.58
2017-06-11T07:34:10.916Z,31.48
2017-06-11T07:35:20.533Z,31.51
2017-06-11T07:36:30.767Z,31.48
2017-06-11T07:37:40.062Z,31.65
2017-06-11T07:38:50.281Z,31.65
2017-06-11T07:40:00.263Z,31.7
2017-06-11T07:41:10.521Z,31.81
2017-06-11T07:42:20.179Z,31.91
2017-06-11T07:43:30.440Z,31.89
2017-06-11T07:44:39.746Z,32
2017-06-11T07:45:49.736Z,32.01
2017-06-11T07:46:59.706Z,32.18
2017-06-11T07:48:09.975Z,32.18
2017-06-11T07:49:19.983Z,32.26
2017-06-11T07:50:29.665Z,32.33
2017-06-11T07:51:39.647Z,32.41
2017-06-11T07:52:49.337Z,32.55
2017-06-11T07:53:59.303Z,32.65
2017-06-11T07:55:09.563Z,32.82
2017-06-11T07:56:19.832Z,33.19
2017-06-11T07:57:29.545Z,33.5
2017-06-11T07:58:39.896Z,33.72
2017-06-11T07:59:49.869Z,34.02
2017-06-11T08:00:59.891Z,34.16
2017-06-11T08:02:09.216Z,34.27
2017-06-11T08:03:18.548Z,34.44
2017-06-11T08:04:28.230Z,34.53
2017-06-11T08:05:38.521Z,34.5
2017-06-11T08:06:48.506Z,34.46
2017-06-11T08:07:58.785Z,34.49
2017-06-11T08:09:08.457Z,34.7
2017-06-11T08:10:18.429Z,35.1
2017-06-11T08:11:28.696Z,35.26
2017-06-11T08:12:38.760Z,35.44
2017-06-11T08:13:48.453Z,35.59
2017-06-11T08:14:58.756Z,35.7
2017-06-11T08:16:08.716Z,35.82
2017-06-11T08:17:19.007Z,35.96
2017-06-11T08:18:28.997Z,36.27
2017-06-11T08:19:39.396Z,36.35
2017-06-11T08:20:49.437Z,36.38
2017-06-11T08:21:59.460Z,36.53
2017-06-11T08:23:09.520Z,36.57
2017-06-11T08:24:19.471Z,36.54
2017-06-11T08:25:29.457Z,36.39
2017-06-11T08:26:40.152Z,36.56
2017-06-11T08:27:50.398Z,36.73
2017-06-11T08:28:59.729Z,36.99
2017-06-11T08:30:09.419Z,37.15
2017-06-11T08:31:18.780Z,37.39
2017-06-11T08:32:28.420Z,37.39
2017-06-11T08:33:38.058Z,37.55
2017-06-11T08:34:48.163Z,37.63
2017-06-11T08:35:58.099Z,37.56
2017-06-11T08:37:08.343Z,37.62
2017-06-11T08:38:17.988Z,37.41
2017-06-11T08:39:27.972Z,37.24
2017-06-11T08:40:38.243Z,36.87
2017-06-11T08:41:48.172Z,36.43
2017-06-11T08:42:57.824Z,36.17
2017-06-11T08:44:07.766Z,35.84
2017-06-11T08:45:18.272Z,35.56
2017-06-11T08:46:28.912Z,35.29
2017-06-11T08:47:38.525Z,34.92
2017-06-11T08:48:48.757Z,34.7
2017-06-11T08:49:58.993Z,34.43
2017-06-11T08:51:08.936Z,34.12
2017-06-11T08:52:18.875Z,33.9
2017-06-11T08:53:29.120Z,33.69
2017-06-11T08:54:38.125Z,33.51
2017-06-11T08:55:48.071Z,33.34
2017-06-11T08:56:58.035Z,33.15
2017-06-11T08:58:07.671Z,32.97
2017-06-11T08:59:18.217Z,32.75
2017-06-11T09:00:29.118Z,32.63
2017-06-11T09:01:39.095Z,32.4
2017-06-11T09:02:48.734Z,32.22
2017-06-11T09:03:58.387Z,32.01
2017-06-11T09:05:08.715Z,31.88
2017-06-11T09:06:18.367Z,31.78
2017-06-11T09:07:28.308Z,31.57
2017-06-11T09:08:38.523Z,31.36
2017-06-11T09:09:48.439Z,31.29
2017-06-11T09:10:58.363Z,31.12
2017-06-11T09:12:07.981Z,30.92
2017-06-11T09:13:17.890Z,30.91
2017-06-11T09:14:28.116Z,30.72
2017-06-11T09:15:38.058Z,30.69
2017-06-11T09:16:47.407Z,30.45
2017-06-11T09:17:57.644Z,30.37
2017-06-11T09:19:07.876Z,30.32
2017-06-11T09:20:17.804Z,30.13
2017-06-11T09:21:28.088Z,30
2017-06-11T09:22:37.696Z,29.86
2017-06-11T09:23:47.639Z,29.67
2017-06-11T09:24:57.554Z,29.63
2017-06-11T09:26:07.480Z,29.55
2017-06-11T09:27:17.712Z,29.46
2017-06-11T09:28:27.328Z,29.33
2017-06-11T09:29:37.609Z,29.26
2017-06-11T09:30:48.242Z,29.11
2017-06-11T09:31:58.455Z,29.02
2017-06-11T09:33:07.782Z,28.96
2017-06-11T09:34:17.709Z,28.93
2017-06-11T09:35:27.660Z,28.76
2017-06-11T09:36:37.578Z,28.74
2017-06-11T09:37:47.857Z,28.58
2017-06-11T09:38:57.787Z,28.55
2017-06-11T09:40:07.396Z,28.62
2017-06-11T09:41:18.020Z,28.54
2017-06-11T09:42:28.280Z,28.43
2017-06-11T09:43:38.235Z,28.36
2017-06-11T09:44:47.894Z,28.39
2017-06-11T09:45:58.122Z,28.25
2017-06-11T09:47:07.430Z,28.15
2017-06-11T09:48:17.366Z,28.12
2017-06-11T09:49:27.604Z,28.17
2017-06-11T09:50:37.843Z,28.12
2017-06-11T09:51:47.767Z,28.06
2017-06-11T09:52:59.448Z,28
2017-06-11T09:54:11.147Z,27.99
2017-06-11T09:55:21.365Z,27.94
2017-06-11T09:56:31.337Z,27.87
2017-06-11T09:57:40.633Z,27.85
2017-06-11T09:58:50.883Z,27.9
2017-06-11T10:00:00.483Z,27.84
2017-06-11T10:01:10.083Z,27.82
2017-06-11T10:02:20.313Z,27.79
2017-06-11T10:03:30.552Z,27.82
2017-06-11T10:04:40.778Z,27.77
2017-06-11T10:05:50.390Z,27.72
2017-06-11T10:07:00.621Z,27.7
2017-06-11T10:08:10.866Z,27.65
2017-06-11T10:09:21.112Z,27.63
2017-06-11T10:10:30.417Z,27.6
2017-06-11T10:11:40.659Z,27.69
2017-06-11T10:12:50.588Z,27.57
2017-06-11T10:14:00.502Z,27.51
2017-06-11T10:15:10.467Z,27.51
2017-06-11T10:16:20.074Z,27.44
2017-06-11T10:17:30.306Z,27.49
2017-06-11T10:18:40.545Z,27.4
2017-06-11T10:19:50.474Z,27.39
2017-06-11T10:21:00.098Z,27.41
2017-06-11T10:22:09.384Z,27.41
2017-06-11T10:23:19.008Z,27.32
2017-06-11T10:24:28.933Z,27.4
2017-06-11T10:25:39.158Z,27.31
2017-06-11T10:26:48.466Z,27.27
2017-06-11T10:27:57.764Z,27.21
2017-06-11T10:29:07.977Z,27.32
2017-06-11T10:30:17.896Z,27.24
2017-06-11T10:31:27.829Z,27.31
2017-06-11T10:32:37.465Z,27.31
2017-06-11T10:33:46.801Z,27.25
2017-06-11T10:34:57.031Z,27.28
2017-06-11T10:36:06.031Z,27.21
2017-06-11T10:37:15.939Z,27.22
2017-06-11T10:38:25.263Z,27.28
2017-06-11T10:39:35.497Z,27.25
2017-06-11T10:40:45.425Z,27.27
2017-06-11T10:41:54.794Z,27.21
2017-06-11T10:43:04.711Z,27.21
2017-06-11T10:44:14.625Z,27.19
2017-06-11T10:45:24.536Z,27.22
2017-06-11T10:46:34.751Z,27.13
2017-06-11T10:47:44.691Z,27.19
2017-06-11T10:48:54.306Z,27.18
2017-06-11T10:50:03.920Z,27.17
2017-06-11T10:51:13.835Z,27.14
2017-06-11T10:52:24.059Z,27.14
2017-06-11T10:53:33.968Z,27.13
2017-06-11T10:54:44.194Z,27.09
2017-06-11T10:55:54.137Z,27.09
2017-06-11T10:57:04.046Z,27.13
2017-06-11T10:58:13.965Z,27.12
2017-06-11T10:59:23.561Z,27.02
2017-06-11T11:00:33.489Z,27.1
2017-06-11T11:01:43.712Z,27.02
2017-06-11T11:02:53.628Z,27.13
2017-06-11T11:04:02.949Z,27.09
2017-06-11T11:05:12.874Z,27.03
2017-06-11T11:06:22.792Z,27.04
2017-06-11T11:07:32.712Z,27.13
2017-06-11T11:08:42.947Z,27
2017-06-11T11:09:52.869Z,27.09
2017-06-11T11:11:02.793Z,27.04
2017-06-11T11:12:12.709Z,27.03
2017-06-11T11:13:22.307Z,27.02
2017-06-11T11:14:32.214Z,27.03
2017-06-11T11:15:41.520Z,27
2017-06-11T11:16:51.424Z,27.03
2017-06-11T11:18:01.059Z,26.94
2017-06-11T11:19:10.993Z,26.94
2017-06-11T11:20:20.919Z,26.95
2017-06-11T11:21:30.834Z,26.94
2017-06-11T11:22:40.762Z,27.02
2017-06-11T11:25:00.291Z,27
2017-06-11T11:26:10.523Z,27
2017-06-11T11:27:20.432Z,26.97
2017-06-11T11:28:30.351Z,26.94
2017-06-11T11:29:40.281Z,26.97
2017-06-11T11:30:50.501Z,26.95
2017-06-11T11:32:00.742Z,26.92
2017-06-11T11:33:10.366Z,26.97
2017-06-11T11:34:20.615Z,26.94
2017-06-11T11:35:30.241Z,26.97
2017-06-11T11:36:40.146Z,26.99
2017-06-11T11:37:50.360Z,26.87
2017-06-11T11:39:00.571Z,26.99
2017-06-11T11:40:09.864Z,26.95
2017-06-11T11:41:19.476Z,26.91
2017-06-11T11:42:29.381Z,26.95
2017-06-11T11:43:39.611Z,26.88
2017-06-11T11:44:49.521Z,26.92
2017-06-11T11:45:59.750Z,26.87
2017-06-11T11:47:09.380Z,26.92
2017-06-11T11:48:19.321Z,26.89
2017-06-11T11:49:28.621Z,26.81
2017-06-11T11:50:38.903Z,26.85
2017-06-11T11:51:48.805Z,26.92
2017-06-11T11:52:59.024Z,26.88
2017-06-11T11:54:09.249Z,26.82
2017-06-11T11:55:19.470Z,26.82
2017-06-11T11:56:29.409Z,26.81
2017-06-11T11:57:39.621Z,26.91
2017-06-11T11:58:49.535Z,26.88
2017-06-11T11:59:59.741Z,26.92
2017-06-11T12:01:09.661Z,26.82
2017-06-11T12:02:18.987Z,26.89
2017-06-11T12:03:28.292Z,26.88
2017-06-11T12:04:38.523Z,26.91
2017-06-11T12:05:48.157Z,26.94
2017-06-11T12:06:57.764Z,26.97
2017-06-11T12:08:07.985Z,26.91
2017-06-11T12:09:17.892Z,26.97
2017-06-11T12:10:27.814Z,26.95
2017-06-11T12:11:37.723Z,26.92
2017-06-11T12:12:47.650Z,26.94
2017-06-11T12:13:56.640Z,26.95
2017-06-11T12:15:06.869Z,26.97
2017-06-11T12:16:17.097Z,26.95
2017-06-11T12:17:27.035Z,26.97
2017-06-11T12:18:37.257Z,26.95
2017-06-11T12:19:47.176Z,26.99
2017-06-11T12:20:56.772Z,26.97
2017-06-11T12:22:06.699Z,27.02
2017-06-11T12:23:16.914Z,27
2017-06-11T12:24:26.831Z,27.02
2017-06-11T12:25:36.750Z,26.95
2017-06-11T12:26:47.036Z,27.03
2017-06-11T12:27:56.941Z,27.02
2017-06-11T12:29:06.261Z,26.99
2017-06-11T12:30:16.186Z,27.04
2017-06-11T12:31:26.405Z,27.02
2017-06-11T12:32:36.313Z,27.06
2017-06-11T12:33:45.922Z,27.07
2017-06-11T12:34:55.518Z,27.1
2017-06-11T12:36:05.445Z,27.09
2017-06-11T12:37:15.058Z,27.06
2017-06-11T12:38:24.660Z,27.18
2017-06-11T12:39:33.962Z,27.17
2017-06-11T12:40:43.268Z,27.13
2017-06-11T12:41:52.895Z,27.19
2017-06-11T12:43:02.535Z,27.13
2017-06-11T12:44:12.155Z,27.13
2017-06-11T12:45:22.377Z,27.13
2017-06-11T12:46:32.000Z,27.18
2017-06-11T12:47:41.599Z,27.14
2017-06-11T12:48:51.503Z,27.14
2017-06-11T12:50:01.715Z,27.21
2017-06-11T12:51:11.619Z,27.18
2017-06-11T12:52:21.225Z,27.24
2017-06-11T12:53:30.873Z,27.19
2017-06-11T12:54:40.784Z,27.24
2017-06-11T12:55:49.792Z,27.17
2017-06-11T12:57:00.020Z,27.24
2017-06-11T12:58:10.267Z,27.22
2017-06-11T12:59:19.558Z,27.25
2017-06-11T13:00:28.866Z,27.25
2017-06-11T13:01:38.775Z,27.21
2017-06-11T13:02:48.724Z,27.22
2017-06-11T13:03:58.941Z,27.28
2017-06-11T13:05:08.867Z,27.27
2017-06-11T13:06:18.482Z,27.28
2017-06-11T13:07:27.791Z,27.28
2017-06-11T13:08:37.401Z,27.25
2017-06-11T13:09:46.394Z,27.24
2017-06-11T13:10:56.344Z,27.24
2017-06-11T13:12:06.571Z,27.22
2017-06-11T13:13:15.881Z,27.25
2017-06-11T13:14:25.476Z,27.24
2017-06-11T13:15:35.719Z,27.18
2017-06-11T13:16:45.631Z,27.25
2017-06-11T13:17:55.534Z,27.28
2017-06-11T13:19:05.159Z,27.25
2017-06-11T13:20:14.761Z,27.27
2017-06-11T13:21:24.909Z,27.22
2017-06-11T13:22:34.819Z,27.24
2017-06-11T13:23:44.427Z,27.29
2017-06-11T13:24:54.045Z,27.19
2017-06-11T13:26:03.646Z,27.22
2017-06-11T13:27:13.870Z,27.22
2017-06-11T13:28:23.776Z,27.27
2017-06-11T13:29:34.076Z,27.24
2017-06-11T13:30:43.984Z,27.31
2017-06-11T13:31:53.895Z,27.24
2017-06-11T13:33:03.803Z,27.27
2017-06-11T13:34:14.044Z,27.21
2017-06-11T13:35:23.954Z,27.21
2017-06-11T13:36:33.548Z,27.27
2017-06-11T13:37:43.773Z,27.29
2017-06-11T13:38:54.004Z,27.34
2017-06-11T13:40:03.609Z,27.31
2017-06-11T13:41:13.812Z,27.39
2017-06-11T13:42:23.726Z,27.36
2017-06-11T13:43:33.325Z,27.34
2017-06-11T13:44:42.931Z,27.34
2017-06-11T13:45:52.841Z,27.36
2017-06-11T13:47:02.751Z,27.4
2017-06-11T13:48:12.364Z,27.37
2017-06-11T13:49:22.282Z,27.4
2017-06-11T13:50:31.892Z,27.37
2017-06-11T13:51:42.108Z,27.39
2017-06-11T13:52:52.318Z,27.39
2017-06-11T13:54:02.534Z,27.4
2017-06-11T13:55:12.757Z,27.4
2017-06-11T13:56:22.973Z,27.41
2017-06-11T13:57:33.176Z,27.39
2017-06-11T13:58:43.080Z,27.4
2017-06-11T13:59:52.681Z,27.43
2017-06-11T14:01:02.288Z,27.4
2017-06-11T14:02:12.016Z,27.37
2017-06-11T14:03:22.258Z,27.39
2017-06-11T14:04:32.503Z,27.37
2017-06-11T14:05:42.752Z,27.39
2017-06-11T14:06:53.494Z,27.4
2017-06-11T14:08:03.421Z,27.4
2017-06-11T14:09:13.972Z,27.39
2017-06-11T14:10:24.190Z,27.4
2017-06-11T14:11:34.777Z,27.44
2017-06-11T14:12:44.688Z,27.41
2017-06-11T14:13:54.594Z,27.46
2017-06-11T14:15:04.809Z,27.39
2017-06-11T14:16:14.739Z,27.4
2017-06-11T14:17:24.343Z,27.4
2017-06-11T14:18:34.556Z,27.39
2017-06-11T14:19:44.474Z,27.37
2017-06-11T14:20:54.396Z,27.37
2017-06-11T14:22:04.308Z,27.41
2017-06-11T14:23:14.223Z,27.37
2017-06-11T14:24:24.430Z,27.32
2017-06-11T14:25:34.034Z,27.36
2017-06-11T14:26:43.944Z,27.32
2017-06-11T14:27:53.563Z,27.34
2017-06-11T14:29:03.477Z,27.31
2017-06-11T14:30:13.391Z,27.32
2017-06-11T14:31:23.297Z,27.31
2017-06-11T14:32:33.205Z,27.36
2017-06-11T14:33:42.817Z,27.34
2017-06-11T14:34:52.729Z,27.32
2017-06-11T14:36:02.325Z,27.34
2017-06-11T14:37:11.729Z,27.39
2017-06-11T14:38:21.635Z,27.28
2017-06-11T14:39:31.536Z,27.36
2017-06-11T14:40:41.453Z,27.34
2017-06-11T14:41:51.357Z,27.37
2017-06-11T14:43:01.265Z,27.39
2017-06-11T14:44:11.160Z,27.31
2017-06-11T14:45:21.072Z,27.37
2017-06-11T14:46:30.672Z,27.29
2017-06-11T14:47:40.895Z,27.34
2017-06-11T14:48:51.113Z,27.32
2017-06-11T14:50:00.711Z,27.47
2017-06-11T14:51:10.620Z,27.34
2017-06-11T14:52:20.539Z,27.31
2017-06-11T14:53:30.132Z,27.34
2017-06-11T14:54:40.044Z,27.27
2017-06-11T14:55:49.947Z,27.24
2017-06-11T14:56:59.879Z,27.31
2017-06-11T14:58:09.790Z,27.17
2017-06-11T14:59:19.402Z,27.34
2017-06-11T15:00:29.387Z,27.31
2017-06-11T15:01:39.609Z,27.21
2017-06-11T15:02:49.214Z,27.31
2017-06-11T15:03:58.593Z,27.25
2017-06-11T15:05:08.750Z,27.31
2017-06-11T15:06:18.695Z,27.36